Terminal Aerodrome Forecast
Issued by NWS Tulsa, OK

Home | Current Version | Previous Version | Text Only | Print | Product List | Glossary On
Versions: 1 2 3 4 5 6 7 8 9 10 11 12 13 14
565
FTUS44 KTSA 291121
TAFFSM
TAF
KFSM 291121Z 2912/3012 10011G22KT 5SM -TSRA BKN050CB
      TEMPO 2912/2916 3SM TSRA OVC025CB
     FM291600 08011KT 6SM -TSRA OVC015CB
      TEMPO 2916/2920 4SM -TSRA BKN008CB
     FM292000 09010KT 5SM -TSRA OVC012CB
     FM300000 11010KT 6SM -TSRA BKN025CB
      TEMPO 3008/3012 3SM TSRA BKN012CB=

USA.gov is the U.S. government's official web portal to all federal, state and local government web resources and services.